Time;durP1;ratioP1;P1;durP2;ratioP2;P2;SDS_P1;SDS_P2;PMS_P1;PMS_P2;Temp;Humidity;BMP_temperature;BMP_pressure;BME280_temperature;BME280_humidity;BME280_pressure;Samples;Min_cycle;Max_cycle;Signal;HPM_P1;HPM_P2
2021/10/04 00:00:59;;;;;;;;;53.00;44.50;;;;;9.46;54.80;102414.44;6274273;22;11528;-71
2021/10/04 00:03:54;;;;;;;;;54.00;45.00;;;;;9.40;54.88;102412.81;6273984;22;11534;-71
2021/10/04 00:06:50;;;;;;;;;48.25;41.75;;;;;9.38;55.33;102409.50;6276078;22;11508;-71
2021/10/04 00:09:46;;;;;;;;;30.50;28.75;;;;;9.71;52.43;102405.22;6274186;22;11533;-71
2021/10/04 00:12:42;;;;;;;;;22.75;22.75;;;;;9.79;51.77;102417.63;6276194;22;11577;-71
2021/10/04 00:15:38;;;;;;;;;28.75;23.75;;;;;9.91;51.14;102416.19;6276319;22;11575;-71
2021/10/04 00:18:33;;;;;;;;;21.25;20.75;;;;;9.96;50.60;102418.06;6276300;22;11484;-71
2021/10/04 00:21:29;;;;;;;;;19.50;19.50;;;;;10.02;50.47;102420.53;6276087;22;11469;-71
2021/10/04 00:24:25;;;;;;;;;20.75;19.25;;;;;9.96;49.98;102416.13;6275532;22;12173;-72
2021/10/04 00:27:21;;;;;;;;;22.00;19.50;;;;;10.01;50.27;102415.28;6275797;22;11551;-72
2021/10/04 00:30:17;;;;;;;;;18.00;18.00;;;;;9.98;49.81;102413.13;6275895;22;11561;-71
2021/10/04 00:33:13;;;;;;;;;23.75;19.75;;;;;10.00;50.03;102408.13;6276101;22;11452;-72
2021/10/04 00:36:08;;;;;;;;;21.50;21.50;;;;;9.96;50.13;102410.59;6275596;22;12270;-71
2021/10/04 00:39:04;;;;;;;;;24.00;24.00;;;;;9.98;50.04;102410.34;6275822;22;11518;-72
2021/10/04 00:42:00;;;;;;;;;18.75;17.75;;;;;9.92;50.25;102411.47;6273877;22;11454;-71
2021/10/04 00:44:56;;;;;;;;;19.50;19.00;;;;;9.94;50.37;102406.47;6275793;22;11480;-72
2021/10/04 00:47:53;;;;;;;;;17.00;17.00;;;;;9.92;50.33;102405.94;6276039;22;11518;-71
2021/10/04 00:50:49;;;;;;;;;24.50;23.75;;;;;9.91;50.33;102398.78;6275892;22;11438;-71
2021/10/04 00:53:45;;;;;;;;;20.25;20.25;;;;;9.79;50.82;102401.88;6275812;22;11464;-73
2021/10/04 00:56:41;;;;;;;;;26.25;24.00;;;;;9.77;50.91;102400.50;6273637;22;11467;-72
2021/10/04 00:59:37;;;;;;;;;24.25;23.75;;;;;9.60;51.10;102409.16;6273613;22;12360;-72
2021/10/04 01:02:32;;;;;;;;;23.50;22.00;;;;;9.62;50.89;102406.94;6293129;22;11548;-72
2021/10/04 01:05:29;;;;;;;;;23.00;21.25;;;;;9.60;50.66;102406.38;6292948;22;11490;-72
2021/10/04 01:08:25;;;;;;;;;24.00;24.00;;;;;9.64;50.75;102410.22;6275902;22;12309;-73
2021/10/04 01:11:22;;;;;;;;;20.00;20.00;;;;;9.62;50.79;102406.94;6275204;22;11612;-72
2021/10/04 01:14:19;;;;;;;;;23.25;23.25;;;;;9.60;50.79;102404.44;6275834;22;11622;-72
2021/10/04 01:17:14;;;;;;;;;21.75;20.25;;;;;9.42;51.58;102405.06;6275755;22;12290;-72
2021/10/04 01:20:13;;;;;;;;;20.00;20.00;;;;;9.49;51.00;102397.28;6273647;22;11504;-72
2021/10/04 01:23:09;;;;;;;;;25.50;22.50;;;;;9.47;51.19;102397.59;6275744;22;12241;-72
2021/10/04 01:26:05;;;;;;;;;22.25;21.75;;;;;9.42;51.48;102400.34;6275493;22;11540;-72
2021/10/04 01:29:00;;;;;;;;;22.50;22.00;;;;;9.36;51.16;102395.16;6275740;22;12251;-72
2021/10/04 01:31:56;;;;;;;;;21.75;21.75;;;;;9.42;51.24;102400.34;6275673;22;11502;-72
2021/10/04 01:34:56;;;;;;;;;21.25;20.25;;;;;9.32;51.59;102394.88;6275567;22;11519;-72
2021/10/04 01:37:52;;;;;;;;;21.50;21.00;;;;;9.38;51.32;102398.47;6275473;22;11527;-72
2021/10/04 01:40:48;;;;;;;;;21.50;20.00;;;;;9.33;51.95;102396.53;6292700;22;11514;-72
2021/10/04 01:43:44;;;;;;;;;20.00;20.00;;;;;9.35;51.70;102399.00;6273286;22;11526;-72
2021/10/04 01:46:39;;;;;;;;;16.75;16.75;;;;;9.36;52.13;102404.25;6275723;22;11508;-72
2021/10/04 01:49:35;;;;;;;;;17.75;17.75;;;;;9.26;52.07;102407.03;6273485;22;12160;-72
2021/10/04 01:52:31;;;;;;;;;18.75;18.75;;;;;9.30;51.98;102402.63;6275548;22;11594;-72
2021/10/04 01:55:27;;;;;;;;;22.25;22.25;;;;;9.30;51.90;102404.56;6273310;22;11484;-72
2021/10/04 01:58:22;;;;;;;;;21.50;21.50;;;;;9.45;52.22;102408.09;6275632;22;11493;-72
2021/10/04 02:01:18;;;;;;;;;18.25;18.25;;;;;9.38;53.66;102404.81;6273399;22;11508;-72
2021/10/04 02:04:13;;;;;;;;;22.75;22.75;;;;;8.82;55.88;102406.88;6274793;22;11568;-72
2021/10/04 02:07:09;;;;;;;;;23.00;22.00;;;;;8.92;53.73;102415.13;6273299;22;11582;-72
2021/10/04 02:10:11;;;;;;;;;19.50;18.75;;;;;8.94;53.15;102401.88;6275558;22;12237;-72
2021/10/04 02:13:08;;;;;;;;;19.75;18.25;;;;;8.79;53.60;102407.41;6275207;22;11480;-72
2021/10/04 02:16:04;;;;;;;;;22.00;22.00;;;;;8.95;53.11;102410.97;6275476;22;11659;-72
2021/10/04 02:18:59;;;;;;;;;18.00;18.00;;;;;8.90;53.03;102409.88;6275396;22;11494;-72
2021/10/04 02:21:59;;;;;;;;;18.25;18.25;;;;;8.81;53.20;102414.28;6275404;22;11492;-72
2021/10/04 02:24:55;;;;;;;;;19.00;19.00;;;;;9.07;52.42;102415.09;6277281;22;11512;-72
2021/10/04 02:27:50;;;;;;;;;20.25;17.75;;;;;8.96;53.07;102424.47;6277214;22;11583;-72
2021/10/04 02:30:48;;;;;;;;;18.00;17.25;;;;;8.90;53.12;102417.34;6275271;22;11534;-72
2021/10/04 02:33:43;;;;;;;;;19.00;19.00;;;;;8.88;52.55;102414.00;6277026;22;11524;-72
2021/10/04 02:36:39;;;;;;;;;23.25;23.25;;;;;8.92;52.80;102420.63;6275005;22;11564;-72
2021/10/04 02:39:35;;;;;;;;;17.50;17.50;;;;;8.85;53.08;102417.34;6274816;22;11516;-71
2021/10/04 02:42:31;;;;;;;;;15.75;15.75;;;;;8.82;52.99;102415.13;6277254;22;11509;-72
2021/10/04 02:45:27;;;;;;;;;23.75;21.50;;;;;8.88;53.49;102420.34;6276931;22;12237;-72
2021/10/04 02:48:22;;;;;;;;;13.25;13.00;;;;;8.83;52.78;102408.50;6277295;22;11524;-72
2021/10/04 02:51:18;;;;;;;;;22.25;21.50;;;;;8.91;53.03;102419.00;6277150;22;11618;-72
2021/10/04 02:54:13;;;;;;;;;17.25;17.00;;;;;8.70;53.24;102425.63;6277012;22;12258;-72
2021/10/04 02:57:09;;;;;;;;;17.50;15.50;;;;;8.79;53.60;102415.69;6277123;22;11508;-72
2021/10/04 03:00:07;;;;;;;;;23.50;23.25;;;;;8.86;53.07;102418.97;6276723;22;11561;-71
2021/10/04 03:03:04;;;;;;;;;23.00;23.00;;;;;8.75;53.84;102417.34;6276842;22;11589;-72
2021/10/04 03:05:59;;;;;;;;;21.00;21.00;;;;;8.81;53.05;102425.31;6278063;22;11556;-71
2021/10/04 03:08:55;;;;;;;;;19.75;18.50;;;;;8.75;53.41;102412.66;6276925;22;11518;-72
2021/10/04 03:11:51;;;;;;;;;16.75;16.75;;;;;8.67;53.68;102418.72;6274871;22;11486;-72
2021/10/04 03:14:47;;;;;;;;;23.25;23.25;;;;;8.63;53.17;102415.69;6274679;22;11503;-72
2021/10/04 03:17:42;;;;;;;;;21.75;21.75;;;;;8.73;53.44;102425.88;6274906;22;11505;-72
2021/10/04 03:20:39;;;;;;;;;20.50;20.50;;;;;8.74;53.67;102429.47;6276883;22;12276;-72
2021/10/04 03:23:35;;;;;;;;;22.00;20.25;;;;;8.77;53.35;102428.94;6274549;22;11563;-72
2021/10/04 03:26:32;;;;;;;;;22.00;22.00;;;;;8.80;53.66;102431.94;6293863;22;11488;-71
2021/10/04 03:29:27;;;;;;;;;17.00;17.00;;;;;8.71;52.81;102436.38;6276723;22;11501;-72
2021/10/04 03:32:23;;;;;;;;;17.00;17.00;;;;;8.70;53.08;102436.66;6293484;22;11512;-72
2021/10/04 03:35:19;;;;;;;;;20.00;20.00;;;;;8.78;53.13;102441.63;6276418;22;11538;-71
2021/10/04 03:38:14;;;;;;;;;19.50;19.50;;;;;8.75;53.23;102431.97;6276404;22;11510;-72
2021/10/04 03:41:10;;;;;;;;;19.25;18.75;;;;;8.75;53.36;102436.66;6274331;22;11489;-72
2021/10/04 03:44:06;;;;;;;;;19.00;16.75;;;;;8.74;53.29;102441.34;6274348;22;11484;-72
2021/10/04 03:47:01;;;;;;;;;19.25;19.25;;;;;8.82;53.30;102443.56;6276463;22;11524;-72
2021/10/04 03:49:57;;;;;;;;;21.00;21.00;;;;;8.72;53.45;102451.00;6276464;22;11500;-72
2021/10/04 03:52:53;;;;;;;;;57.25;46.25;;;;;8.62;53.86;102446.31;6276493;22;11516;-72
2021/10/04 03:55:48;;;;;;;;;24.50;23.00;;;;;8.66;53.29;102446.56;6276334;22;11547;-72
2021/10/04 03:58:45;;;;;;;;;42.50;39.00;;;;;8.70;53.15;102448.50;6276028;22;11650;-72
2021/10/04 04:01:41;;;;;;;;;22.50;20.75;;;;;8.81;53.29;102447.38;6274505;22;11527;-71
2021/10/04 04:04:37;;;;;;;;;26.75;25.75;;;;;8.79;53.97;102440.50;6276211;22;12202;-72
2021/10/04 04:07:33;;;;;;;;;26.00;25.00;;;;;8.85;53.40;102448.50;6293248;22;11610;-72
2021/10/04 04:10:28;;;;;;;;;21.50;19.50;;;;;8.85;53.80;102445.75;6276265;22;12361;-72
2021/10/04 04:13:24;;;;;;;;;22.25;21.50;;;;;8.95;53.14;102442.16;6273634;22;11582;-72
2021/10/04 04:16:20;;;;;;;;;20.75;20.75;;;;;8.90;53.46;102444.94;6276390;22;11518;-72
2021/10/04 04:19:15;;;;;;;;;25.50;25.50;;;;;8.83;53.92;102453.50;6275903;22;11512;-71
2021/10/04 04:22:11;;;;;;;;;16.50;15.50;;;;;8.75;53.10;102447.69;6275722;22;11500;-72
2021/10/04 04:25:07;;;;;;;;;22.75;22.50;;;;;8.85;53.12;102451.28;6273395;22;11479;-72
2021/10/04 04:28:03;;;;;;;;;27.75;25.75;;;;;8.93;53.00;102449.88;6272834;22;11520;-71
2021/10/04 04:30:59;;;;;;;;;20.00;20.00;;;;;9.30;58.56;102445.97;6274709;22;11541;-70
2021/10/04 04:33:55;;;;;;;;;21.50;19.50;;;;;9.73;60.01;102450.78;6275730;22;11542;-70
2021/10/04 04:36:50;;;;;;;;;27.75;24.75;;;;;10.35;67.77;102447.72;6293166;22;11574;-71
2021/10/04 04:39:46;;;;;;;;;22.75;21.50;;;;;10.24;60.33;102461.63;6275659;22;11504;-72
2021/10/04 04:42:43;;;;;;;;;26.00;25.75;;;;;10.32;63.12;102453.84;6275913;22;11597;-72
2021/10/04 04:45:39;;;;;;;;;26.50;24.50;;;;;10.73;67.37;102446.06;6275451;22;11542;-71
2021/10/04 04:48:35;;;;;;;;;39.00;35.50;;;;;10.65;58.16;102455.00;6276053;22;11527;-72
2021/10/04 04:51:30;;;;;;;;;31.25;30.25;;;;;11.08;61.73;102458.78;6274528;22;11598;-72
2021/10/04 04:54:26;;;;;;;;;28.75;27.25;;;;;11.14;59.61;102457.63;6274027;22;11442;-72
2021/10/04 04:57:22;;;;;;;;;27.00;26.50;;;;;11.78;69.93;102461.91;6275899;22;11447;-72
2021/10/04 05:00:18;;;;;;;;;50.75;42.75;;;;;11.21;55.50;102452.56;6276176;22;11439;-72
2021/10/04 05:03:14;;;;;;;;;18.00;16.50;;;;;12.29;70.90;102454.88;6275902;22;11531;-72
2021/10/04 05:06:09;;;;;;;;;42.25;39.25;;;;;11.86;57.53;102457.66;6275299;22;11545;-73
2021/10/04 05:09:05;;;;;;;;;39.00;35.00;;;;;12.60;66.18;102461.63;6275216;22;11542;-71
2021/10/04 05:12:01;;;;;;;;;54.25;46.75;;;;;11.33;48.76;102452.16;6272849;22;11479;-74
2021/10/04 05:14:56;;;;;;;;;52.50;45.50;;;;;11.18;49.13;102455.91;6272229;22;11568;-73
2021/10/04 05:17:52;;;;;;;;;47.00;40.25;;;;;11.06;49.65;102453.53;6275049;22;11502;-72
2021/10/04 05:20:48;;;;;;;;;49.25;43.00;;;;;10.91;49.28;102452.84;6275679;22;11523;-72
2021/10/04 05:23:43;;;;;;;;;36.00;35.50;;;;;10.88;49.33;102457.00;6275535;22;11568;-72
2021/10/04 05:26:40;;;;;;;;;40.75;36.00;;;;;10.94;49.56;102452.25;6275619;22;11532;-71
2021/10/04 05:29:38;;;;;;;;;31.50;31.25;;;;;11.11;49.21;102469.25;6273141;22;11536;-73
2021/10/04 05:32:34;;;;;;;;;7.00;5.25;;;;;11.28;49.12;102464.13;6275651;22;11594;-73
2021/10/04 05:35:29;;;;;;;;;34.50;33.00;;;;;11.26;48.42;102468.28;6292640;22;12115;-73
2021/10/04 05:38:25;;;;;;;;;31.25;28.75;;;;;11.50;48.27;102479.41;6272854;22;12174;-71
2021/10/04 05:41:21;;;;;;;;;52.75;39.75;;;;;11.58;48.34;102473.25;6275596;22;11461;-72
2021/10/04 05:44:16;;;;;;;;;33.25;31.50;;;;;11.57;47.54;102480.69;6275248;22;11552;-72
2021/10/04 05:47:13;;;;;;;;;43.00;38.50;;;;;11.56;47.75;102481.81;6275450;22;11443;-72
2021/10/04 05:50:10;;;;;;;;;35.25;33.50;;;;;11.86;47.32;102489.00;6275345;22;11596;-73
2021/10/04 05:53:06;;;;;;;;;21.50;20.00;;;;;12.04;46.99;102484.63;6274273;22;12167;-74
2021/10/04 05:55:35;;;;;;;;;56.25;47.00;;;;;12.27;47.12;102484.84;6283483;22;11461;-74
2021/10/04 05:58:02;;;;;;;;;48.50;41.25;;;;;12.45;46.58;102490.44;6284837;22;11477;-74
2021/10/04 06:00:32;;;;;;;;;47.75;37.50;;;;;12.49;45.98;102494.25;6285270;22;11562;-74
2021/10/04 06:03:00;;;;;;;;;43.25;35.75;;;;;12.58;46.56;102494.41;6285501;22;12145;-73
2021/10/04 06:05:28;;;;;;;;;48.50;41.50;;;;;12.82;46.16;102485.97;6285279;22;11477;-73
2021/10/04 06:08:23;;;;;;;;;35.00;34.00;;;;;12.86;44.91;102491.75;6276314;22;11561;-73
2021/10/04 06:11:19;;;;;;;;;42.00;36.75;;;;;12.86;44.66;102486.19;6275999;22;11476;-73
2021/10/04 06:14:14;;;;;;;;;34.25;34.00;;;;;12.95;44.62;102493.50;6276672;22;11269;-73
2021/10/04 06:16:42;;;;;;;;;11.75;10.00;;;;;13.21;43.83;102488.41;6276245;22;11449;-73
2021/10/04 06:19:10;;;;;;;;;41.50;37.50;;;;;13.41;44.89;102494.69;6286579;22;11394;-74
2021/10/04 06:22:06;;;;;;;;;50.50;41.50;;;;;13.27;43.26;102491.91;6276738;22;11995;-74
2021/10/04 06:24:34;;;;;;;;;54.00;45.50;;;;;13.54;44.04;102494.72;6310086;22;11435;-74
2021/10/04 06:27:02;;;;;;;;;51.00;41.00;;;;;13.77;43.37;102498.44;6286361;22;11474;-73
2021/10/04 06:29:57;;;;;;;;;27.50;25.00;;;;;13.99;43.32;102496.91;6255625;22;11472;-74
2021/10/04 06:32:53;;;;;;;;;59.75;50.00;;;;;14.13;42.76;102497.72;6275013;22;11439;-73
2021/10/04 06:35:49;;;;;;;;;50.50;36.50;;;;;14.30;42.01;102494.28;6275135;22;11507;-74
2021/10/04 06:38:44;;;;;;;;;62.00;50.00;;;;;14.09;41.81;102505.00;6276822;22;11515;-74
2021/10/04 06:41:41;;;;;;;;;61.75;49.25;;;;;14.13;42.49;102506.06;6276763;22;11597;-74
2021/10/04 06:44:23;;;;;;;;;68.25;52.00;;;;;13.97;42.45;102499.16;6275172;22;12172;-75
2021/10/04 06:47:18;;;;;;;;;61.50;47.50;;;;;14.25;42.23;102505.50;6276772;22;11505;-74
2021/10/04 06:50:15;;;;;;;;;49.25;42.75;;;;;14.39;42.02;102501.56;6274463;22;11700;-74
2021/10/04 06:53:10;;;;;;;;;70.75;53.00;;;;;14.33;41.29;102499.19;6276568;22;11577;-75
2021/10/04 06:56:07;;;;;;;;;56.50;44.25;;;;;14.66;41.44;102500.72;6276789;22;11508;-74
2021/10/04 06:59:02;;;;;;;;;39.50;36.00;;;;;15.08;41.28;102500.50;6273719;22;11461;-74
2021/10/04 07:01:30;;;;;;;;;29.00;28.25;;;;;14.83;40.11;102510.34;6275543;22;10967;-75
2021/10/04 07:04:26;;;;;;;;;24.25;23.75;;;;;14.99;40.53;102506.84;6276357;22;10307;-75
2021/10/04 07:07:21;;;;;;;;;19.75;19.75;;;;;15.28;40.05;102500.81;6277181;22;10385;-74
2021/10/04 07:10:17;;;;;;;;;34.75;29.25;;;;;15.16;40.04;102514.50;6276544;22;10229;-75
2021/10/04 07:13:13;;;;;;;;;23.00;22.00;;;;;15.48;39.03;102505.00;6275262;22;10966;-74
2021/10/04 07:16:12;;;;;;;;;22.00;21.50;;;;;15.45;39.34;102518.78;6276428;22;10040;-74
2021/10/04 07:19:08;;;;;;;;;25.75;24.00;;;;;15.44;39.61;102514.34;6275510;22;9817;-74
2021/10/04 07:22:04;;;;;;;;;19.25;19.25;;;;;15.25;39.74;102518.16;6276056;22;10901;-74
2021/10/04 07:25:00;;;;;;;;;17.25;17.25;;;;;15.28;39.80;102505.56;6274137;22;9667;-72
2021/10/04 07:27:28;;;;;;;;;16.50;16.50;;;;;15.34;40.14;102511.84;6285807;22;9811;-73
2021/10/04 07:29:55;;;;;;;;;21.50;21.00;;;;;15.16;39.57;102520.06;6285634;22;9739;-73
2021/10/04 07:32:23;;;;;;;;;24.50;20.75;;;;;15.32;39.69;102517.72;6285908;22;9701;-74
2021/10/04 07:34:51;;;;;;;;;26.50;25.75;;;;;15.39;39.31;102515.28;6276631;22;9978;-73
2021/10/04 07:37:18;;;;;;;;;28.75;25.00;;;;;15.50;39.03;102513.91;6285287;22;10141;-74
2021/10/04 07:39:46;;;;;;;;;25.50;25.50;;;;;15.45;38.96;102516.00;6276457;22;9720;-74
2021/10/04 07:42:42;;;;;;;;;33.00;32.75;;;;;15.73;39.45;102519.44;6276006;22;10033;-73
2021/10/04 07:45:12;;;;;;;;;26.25;24.00;;;;;15.89;38.35;102519.84;6285160;22;10134;-74
2021/10/04 07:48:07;;;;;;;;;32.25;29.75;;;;;16.08;38.04;102523.16;6276041;22;9938;-74
2021/10/04 07:51:04;;;;;;;;;33.50;31.25;;;;;15.88;38.12;102523.78;6275802;22;10153;-74
2021/10/04 07:54:00;;;;;;;;;23.75;23.75;;;;;15.97;37.88;102521.84;6275796;22;9983;-73
2021/10/04 07:56:56;;;;;;;;;14.00;14.00;;;;;16.25;37.04;102523.19;6276430;22;9892;-73
2021/10/04 07:59:51;;;;;;;;;18.75;17.75;;;;;16.38;37.96;102525.03;6274199;22;9673;-74
2021/10/04 08:02:23;;;;;;;;;22.50;20.75;;;;;16.43;37.39;102520.47;6276299;22;9681;-73
2021/10/04 08:05:19;;;;;;;;;25.00;21.75;;;;;16.59;36.72;102514.06;6275734;22;9602;-74
2021/10/04 08:07:47;;;;;;;;;9.67;9.67;;;;;16.36;36.39;102529.31;6285664;22;9556;-74
2021/10/04 08:10:43;;;;;;;;;14.33;14.33;;;;;16.24;37.10;102521.56;6273953;22;9336;-74
2021/10/04 08:13:38;;;;;;;;;17.00;16.00;;;;;16.17;36.51;102521.22;6275936;22;9318;-74
2021/10/04 08:16:34;;;;;;;;;22.75;22.75;;;;;16.26;37.13;102516.50;6276286;22;9424;-73
2021/10/04 08:19:02;;;;;;;;;27.00;27.00;;;;;16.43;36.82;102528.84;6276517;22;9564;-73
2021/10/04 08:21:58;;;;;;;;;23.50;20.75;;;;;16.15;35.87;102522.69;6275992;22;9545;-75
2021/10/04 08:24:54;;;;;;;;;29.00;27.50;;;;;16.56;36.89;102513.88;6275745;22;9639;-73
2021/10/04 08:27:49;;;;;;;;;22.00;21.75;;;;;16.68;35.99;102528.03;6276108;22;9848;-74
2021/10/04 08:30:46;;;;;;;;;22.50;22.00;;;;;16.67;36.50;102510.44;6276147;22;9686;-74
2021/10/04 08:33:42;;;;;;;;;17.25;17.25;;;;;16.66;35.84;102516.38;6275920;22;9734;-75
2021/10/04 08:36:38;;;;;;;;;25.00;25.00;;;;;17.26;35.53;102515.53;6276159;22;9479;-73
2021/10/04 08:39:33;;;;;;;;;19.67;19.67;;;;;17.34;34.87;102514.69;6293082;22;9524;-74
2021/10/04 08:42:03;;;;;;;;;12.00;12.00;;;;;17.38;33.35;102507.25;6285407;22;9373;-73
2021/10/04 08:44:32;;;;;;;;;14.67;14.67;;;;;17.72;33.94;102508.34;6274848;22;9146;-74
2021/10/04 08:47:00;;;;;;;;;12.25;12.25;;;;;18.32;33.12;102505.16;6285328;22;9028;-74
2021/10/04 08:49:29;;;;;;;;;10.25;10.25;;;;;18.64;32.54;102494.41;6276445;22;8794;-74
2021/10/04 08:51:57;;;;;;;;;12.00;12.00;;;;;19.06;31.56;102500.81;6285204;22;8794;-74
2021/10/04 08:54:24;;;;;;;;;11.00;11.00;;;;;18.94;30.64;102499.94;6285116;22;8775;-73
2021/10/04 08:56:54;;;;;;;;;11.75;11.75;;;;;19.11;30.40;102496.97;6283856;22;8778;-73
2021/10/04 08:59:22;;;;;;;;;18.00;18.00;;;;;19.01;30.37;102494.56;6276343;22;8782;-73
2021/10/04 09:01:50;;;;;;;;;15.75;14.00;;;;;19.14;30.64;102490.66;6285379;22;8774;-75
2021/10/04 09:04:20;;;;;;;;;15.00;15.00;;;;;19.11;30.34;102497.78;6309280;22;8775;-75
2021/10/04 09:06:48;;;;;;;;;17.75;17.75;;;;;19.09;30.11;102499.28;6276269;22;9527;-74
2021/10/04 09:09:16;;;;;;;;;13.50;13.50;;;;;18.68;29.70;102494.56;6284867;22;8845;-75
2021/10/04 09:11:49;;;;;;;;;19.00;19.00;;;;;18.47;29.58;102491.72;6284999;22;8766;-73
2021/10/04 09:14:37;;;;;;;;;21.75;19.25;;;;;18.78;28.66;102480.94;6283621;22;8852;-72
2021/10/04 09:17:11;;;;;;;;;16.75;15.75;;;;;18.61;29.30;102479.09;6285150;22;8806;-73
2021/10/04 09:19:44;;;;;;;;;24.75;23.00;;;;;18.80;28.67;102487.03;6273741;22;8798;-73
2021/10/04 09:22:39;;;;;;;;;13.50;13.25;;;;;19.16;27.91;102474.28;6273253;22;8794;-74
2021/10/04 09:25:40;;;;;;;;;10.00;10.00;;;;;19.50;28.52;102477.88;6292875;22;8813;-73
2021/10/04 09:28:44;;;;;;;;;11.50;9.75;;;;;19.95;27.87;102483.44;6275937;22;8822;-73
2021/10/04 09:31:29;;;;;;;;;8.75;8.75;;;;;20.63;27.30;102475.13;6276487;22;8818;-72
2021/10/04 09:34:26;;;;;;;;;7.00;7.00;;;;;20.78;26.75;102463.13;6275262;22;8796;-72
2021/10/04 09:37:26;;;;;;;;;8.00;8.00;;;;;21.19;26.09;102471.47;6275459;22;8778;-73
2021/10/04 09:40:38;;;;;;;;;8.75;8.75;;;;;21.26;25.96;102471.66;6273023;22;8817;-73
2021/10/04 09:43:34;;;;;;;;;5.00;5.00;;;;;21.13;26.03;102461.66;6275321;22;8805;-72
2021/10/04 09:46:31;;;;;;;;;15.25;15.25;;;;;21.13;26.59;102473.72;6275644;22;8782;-72
2021/10/04 09:49:01;;;;;;;;;7.75;7.75;;;;;21.12;26.29;102462.84;6284749;22;8782;-73
2021/10/04 09:51:28;;;;;;;;;10.25;10.25;;;;;21.50;26.20;102465.06;6284713;22;8797;-71
2021/10/04 09:54:10;;;;;;;;;12.25;12.25;;;;;21.72;25.51;102458.00;6284604;22;8782;-72
2021/10/04 09:56:38;;;;;;;;;12.25;12.25;;;;;22.24;25.87;102443.56;6284877;22;8763;-72
2021/10/04 09:59:06;;;;;;;;;10.00;9.00;;;;;21.45;25.57;102454.09;6299673;22;9496;-72
2021/10/04 10:01:35;;;;;;;;;12.50;11.00;;;;;21.23;25.75;102453.47;6274080;22;8798;-71
2021/10/04 10:04:03;;;;;;;;;10.50;10.50;;;;;21.37;26.41;102455.91;6275738;22;8778;-71
2021/10/04 10:06:34;;;;;;;;;14.00;14.00;;;;;21.36;26.16;102451.44;6284349;22;8770;-73
2021/10/04 10:09:02;;;;;;;;;9.50;9.50;;;;;21.26;25.68;102444.34;6284701;22;8801;-71
2021/10/04 10:11:32;;;;;;;;;17.25;17.25;;;;;20.76;25.78;102445.78;6284716;22;8821;-72
2021/10/04 10:14:00;;;;;;;;;22.50;21.50;;;;;20.41;26.72;102447.53;6284174;22;8801;-72
2021/10/04 10:16:36;;;;;;;;;12.50;12.50;;;;;20.15;27.00;102445.94;6308798;22;8782;-72
2021/10/04 10:19:37;;;;;;;;;12.50;12.25;;;;;20.15;26.25;102440.31;6272621;22;8897;-72
2021/10/04 10:22:45;;;;;;;;;10.00;9.50;;;;;19.81;27.15;102438.03;6275382;22;9523;-73
2021/10/04 10:25:46;;;;;;;;;7.75;7.75;;;;;19.49;27.80;102425.75;6275152;22;8794;-73
2021/10/04 10:28:41;;;;;;;;;6.50;6.50;;;;;19.74;27.09;102429.41;6275330;22;8778;-72
2021/10/04 10:31:52;;;;;;;;;6.00;6.00;;;;;19.98;27.67;102426.56;6275533;22;8812;-73
2021/10/04 10:34:51;;;;;;;;;10.00;9.25;;;;;20.09;27.21;102426.88;6275048;22;9459;-72
2021/10/04 10:37:50;;;;;;;;;9.25;9.25;;;;;20.27;27.61;102423.44;6275238;22;8794;-72
2021/10/04 10:41:17;;;;;;;;;8.25;8.25;;;;;20.48;26.61;102425.31;6274928;22;8806;-72
2021/10/04 10:44:13;;;;;;;;;7.25;7.25;;;;;20.30;27.15;102426.72;6273557;22;8806;-72
2021/10/04 10:46:59;;;;;;;;;6.50;3.00;;;;;20.81;26.86;102423.03;6286095;22;8813;-72
2021/10/04 10:50:21;;;;;;;;;6.50;6.50;;;;;20.50;26.78;102422.94;6286301;22;8790;-72
2021/10/04 10:52:57;;;;;;;;;7.00;7.00;;;;;20.21;27.08;102429.66;6191957;23;9516;-72
2021/10/04 10:55:35;;;;;;;;;6.75;6.75;;;;;20.02;27.05;102423.88;6284966;22;8762;-72
2021/10/04 10:58:06;;;;;;;;;6.25;6.25;;;;;19.94;26.68;102420.03;6286499;22;8778;-72
2021/10/04 11:00:45;;;;;;;;;9.50;8.75;;;;;19.11;26.91;102419.25;6286514;22;8847;-73
2021/10/04 11:03:55;;;;;;;;;6.75;6.75;;;;;19.08;27.19;102419.13;6276752;22;8790;-73
2021/10/04 11:06:50;;;;;;;;;6.25;6.25;;;;;19.02;27.72;102417.72;6274041;22;9485;-72
2021/10/04 11:10:08;;;;;;;;;6.25;6.25;;;;;19.02;28.11;102418.56;6274054;22;8880;-73
2021/10/04 11:13:07;;;;;;;;;8.75;8.75;;;;;19.30;28.54;102412.28;6276582;22;9464;-72
2021/10/04 11:16:05;;;;;;;;;8.50;8.50;;;;;19.58;27.55;102416.06;6277333;22;8779;-74
2021/10/04 11:19:02;;;;;;;;;7.50;7.50;;;;;19.34;27.72;102416.84;6274752;22;8844;-73
2021/10/04 11:21:58;;;;;;;;;6.75;6.75;;;;;19.39;28.00;102413.78;6277012;22;8787;-72
2021/10/04 11:24:26;;;;;;;;;12.00;12.00;;;;;19.56;27.54;102415.56;6275293;22;8853;-73
2021/10/04 11:26:59;;;;;;;;;12.75;12.75;;;;;19.31;28.00;102417.53;6284526;22;8808;-72
2021/10/04 11:29:27;;;;;;;;;27.75;24.50;;;;;19.16;27.98;102424.63;6284485;22;8774;-73
2021/10/04 11:31:56;;;;;;;;;16.00;15.75;;;;;19.79;26.98;102407.53;6286232;22;8821;-73
2021/10/04 11:34:24;;;;;;;;;14.00;14.00;;;;;20.44;26.98;102408.31;6286208;22;8859;-73
2021/10/04 11:36:56;;;;;;;;;15.25;15.25;;;;;21.01;26.29;102418.38;6286221;22;8774;-73
2021/10/04 11:39:29;;;;;;;;;13.50;13.50;;;;;20.91;25.60;102410.44;6274639;22;8782;-73
2021/10/04 11:42:12;;;;;;;;;13.75;12.25;;;;;21.67;25.24;102407.56;6286261;22;8817;-73
2021/10/04 11:44:44;;;;;;;;;23.00;23.00;;;;;21.56;25.12;102404.50;6270930;22;8806;-73
2021/10/04 11:47:13;;;;;;;;;22.00;21.00;;;;;21.29;25.18;102421.13;6276704;22;8824;-72
2021/10/04 11:49:44;;;;;;;;;16.00;16.00;;;;;21.09;25.20;102414.56;6277093;22;8813;-72
2021/10/04 11:52:17;;;;;;;;;13.25;13.25;;;;;20.56;25.72;102407.47;6286061;22;8770;-73
2021/10/04 11:54:51;;;;;;;;;13.00;12.00;;;;;20.08;26.08;102405.59;6285517;22;8775;-73
2021/10/04 11:57:19;;;;;;;;;14.75;14.75;;;;;20.47;26.70;102409.59;6284380;22;9487;-74
2021/10/04 12:00:10;;;;;;;;;15.50;15.50;;;;;19.63;27.13;102404.63;6276820;22;9507;-75
2021/10/04 12:02:45;;;;;;;;;16.75;16.75;;;;;19.70;27.86;102402.00;6284614;22;8801;-74
2021/10/04 12:05:13;;;;;;;;;18.25;18.25;;;;;19.41;27.86;102416.28;6285780;22;8806;-74
2021/10/04 12:08:10;;;;;;;;;14.00;13.75;;;;;19.31;27.70;102402.69;6285877;22;8859;-76
2021/10/04 12:10:45;;;;;;;;;12.25;12.25;;;;;19.05;28.79;102403.81;6284073;22;8782;-75
2021/10/04 12:13:16;;;;;;;;;9.50;7.75;;;;;19.16;28.63;102407.81;6285432;22;8859;-74
2021/10/04 12:15:51;;;;;;;;;9.25;9.00;;;;;19.00;28.19;102415.25;6285396;22;8770;-73
2021/10/04 12:18:22;;;;;;;;;9.25;9.25;;;;;18.99;28.60;102412.81;6284080;22;8782;-73
2021/10/04 12:21:12;;;;;;;;;11.25;11.25;;;;;19.03;28.49;102420.19;6285597;22;9552;-73
2021/10/04 12:23:39;;;;;;;;;8.75;8.75;;;;;18.88;28.72;102412.44;6285437;22;8787;-73
2021/10/04 12:26:10;;;;;;;;;17.25;17.25;;;;;18.70;29.13;102408.16;6285837;22;8786;-74
2021/10/04 12:28:49;;;;;;;;;20.75;20.75;;;;;19.02;29.55;102406.53;6285272;22;8786;-73
2021/10/04 12:31:29;;;;;;;;;24.75;24.75;;;;;18.62;28.31;102407.03;6283938;22;8899;-72
2021/10/04 12:33:57;;;;;;;;;31.67;29.00;;;;;18.73;28.39;102397.09;6275151;22;8810;-73
2021/10/04 12:36:26;;;;;;;;;37.00;33.75;;;;;18.57;28.59;102405.28;6275014;22;9750;-77
2021/10/04 12:39:38;;;;;;;;;43.25;36.75;;;;;18.97;28.90;102401.94;6292482;22;9687;-76
2021/10/04 12:42:05;;;;;;;;;39.33;34.33;;;;;18.88;29.23;102406.81;6284820;22;9888;-75
2021/10/04 12:45:06;;;;;;;;;25.25;25.00;;;;;19.12;29.17;102401.28;6275769;22;9413;-76
2021/10/04 12:48:17;;;;;;;;;15.25;15.00;;;;;19.10;28.09;102403.63;6272892;22;8900;-77
2021/10/04 12:51:21;;;;;;;;;16.50;16.50;;;;;19.02;27.84;102406.53;6274168;22;8822;-76
2021/10/04 12:54:16;;;;;;;;;18.50;17.75;;;;;19.05;28.14;102409.44;6274090;22;8810;-75
2021/10/04 12:57:25;;;;;;;;;19.00;19.00;;;;;18.89;28.66;102402.84;6273952;22;8825;-75